»·PEaware :: N232BM KONT-KBFL

N232BM :: KONT-KBFL

FLIGHT INFORMATION

Flight Status: Arrived
Operator: Privately registered:
United States
More flights under this callsign
Pilot: Robert M. (6318)
Aircraft: BEECH AIRCRAFT BARON
(BE58)
More flights by this aircraft type
Origin: KONT Ontario Intl
United States
Destination: KBFL Meadows
United States
More flights between these airports :: More routes between these airports
Route: +HASSA8 PMD FAST02
File this flight plan on PilotEdge
Remarks: ILS RWY 30R
Altitude:
(Current/Filed)
12,000ft
Speed:
(Current/Filed)
190kts
Departed: 24-Sep-17 12:42 PM
Arrived: 24-Sep-17 01:27 PM
Distance/Time
Traveled:
109nm/0:45
Distance/Time
To Go:
Arrived

Flight Plot

Page will automatically refresh every two minutes.

Flight plan parsing failed; only flown route is shown


Map Options




Map Legend


Flown Route
Filed Route
Departure Airport
Arrival Airport
Navaid (VOR, NDB)
Fix

Horizontal Profiles

Position Reports

Time Latitude Longitude Heading Altitude Ground
Speed
24-Sep-17 12:20 34.051229 -117.603051 268 946ft 0kts
24-Sep-17 12:21 34.051229 -117.603051 268 946ft 0kts
24-Sep-17 12:22 34.051229 -117.603051 268 946ft 0kts
24-Sep-17 12:23 34.051229 -117.603051 268 946ft 0kts
24-Sep-17 12:24 34.051229 -117.603051 268 946ft 0kts
24-Sep-17 12:25 34.051229 -117.603051 268 946ft 0kts
24-Sep-17 12:26 34.051229 -117.603051 268 946ft 0kts
24-Sep-17 12:27 34.051229 -117.603051 268 946ft 0kts
24-Sep-17 12:28 34.051229 -117.603051 268 946ft 0kts
24-Sep-17 12:29 34.051229 -117.603051 268 946ft 0kts
24-Sep-17 12:30 34.051229 -117.603051 268 946ft 0kts
24-Sep-17 12:31 34.051229 -117.603051 268 946ft 0kts
24-Sep-17 12:32 34.051229 -117.603051 268 946ft 0kts
24-Sep-17 12:33 34.051229 -117.603051 268 946ft 0kts
24-Sep-17 12:34 34.051229 -117.603051 268 946ft 0kts
24-Sep-17 12:35 34.051229 -117.603051 268 946ft 0kts
24-Sep-17 12:36 34.051229 -117.603051 268 946ft 0kts
24-Sep-17 12:37 34.051229 -117.603051 268 946ft 0kts
24-Sep-17 12:38 34.051229 -117.603051 268 946ft 0kts
24-Sep-17 12:39 34.051229 -117.603051 268 946ft 0kts
24-Sep-17 12:40 34.053525 -117.603568 359 946ft 14kts
24-Sep-17 12:41 34.053841 -117.597784 91 946ft 22kts
24-Sep-17 12:42 34.053844 -117.589883 90 946ft 24kts
24-Sep-17 12:43 34.053848 -117.582460 35 946ft 9kts
24-Sep-17 12:44 34.053955 -117.582415 8 946ft 0kts
24-Sep-17 12:45 34.054956 -117.582612 292 946ft 9kts
24-Sep-17 12:46 34.054974 -117.593552 269 956ft 132kts
24-Sep-17 12:47 34.054062 -117.638554 266 2118ft 130kts
24-Sep-17 12:48 34.052707 -117.681831 268 3381ft 131kts
24-Sep-17 12:49 34.051585 -117.726037 269 4753ft 134kts
24-Sep-17 12:50 34.052913 -117.770115 308 6116ft 133kts
24-Sep-17 12:51 34.084564 -117.789497 337 7502ft 128kts
24-Sep-17 12:52 34.117122 -117.806186 337 8900ft 129kts
24-Sep-17 12:53 34.150724 -117.823043 337 9944ft 146kts
24-Sep-17 12:54 34.193140 -117.844175 337 10182ft 168kts
24-Sep-17 12:55 34.234799 -117.864966 337 10906ft 160kts
24-Sep-17 12:56 34.275070 -117.885076 337 11530ft 158kts
24-Sep-17 12:57 34.315832 -117.905453 337 11949ft 167kts
24-Sep-17 12:58 34.360373 -117.927727 337 12014ft 180kts
24-Sep-17 12:59 34.407604 -117.951365 337 12029ft 187kts
24-Sep-17 13:00 34.455599 -117.975425 337 12047ft 188kts
24-Sep-17 13:01 34.503900 -117.999672 337 12062ft 189kts
24-Sep-17 13:02 34.552270 -118.023987 337 12071ft 189kts
24-Sep-17 13:03 34.600655 -118.048340 337 12072ft 189kts
24-Sep-17 13:04 34.644491 -118.081045 313 12074ft 189kts
24-Sep-17 13:05 34.680439 -118.127611 314 12072ft 190kts
24-Sep-17 13:06 34.716362 -118.174254 314 12072ft 190kts
24-Sep-17 13:07 34.752302 -118.221049 314 12071ft 190kts
24-Sep-17 13:08 34.787609 -118.267095 314 12071ft 190kts
24-Sep-17 13:09 34.823672 -118.314180 314 12072ft 191kts
24-Sep-17 13:10 34.859760 -118.361372 314 12075ft 191kts
24-Sep-17 13:11 34.895542 -118.408240 314 12078ft 192kts
24-Sep-17 13:12 34.931630 -118.455465 313 12071ft 192kts
24-Sep-17 13:13 34.967874 -118.502985 313 12077ft 193kts
24-Sep-17 13:14 35.004330 -118.550995 312 12075ft 188kts
24-Sep-17 13:15 35.034036 -118.588251 309 12075ft 183kts
24-Sep-17 13:16 35.068015 -118.645417 305 11019ft 181kts
24-Sep-17 13:17 35.095377 -118.692038 304 9747ft 168kts
24-Sep-17 13:18 35.119747 -118.733217 305 8329ft 152kts
24-Sep-17 13:19 35.139722 -118.766864 305 7101ft 144kts
24-Sep-17 13:20 35.164834 -118.808739 305 7012ft 129kts
24-Sep-17 13:21 35.182468 -118.837948 305 7001ft 128kts
24-Sep-17 13:22 35.203667 -118.872911 305 6991ft 127kts
24-Sep-17 13:23 35.228827 -118.901856 315 6991ft 127kts
24-Sep-17 13:24 35.259619 -118.942749 315 4307ft 166kts
24-Sep-17 13:25 35.302356 -118.944274 2 2978ft 135kts
24-Sep-17 13:26 35.334523 -118.952466 330 2787ft 125kts
24-Sep-17 13:27 35.363793 -118.974916 324 2196ft 130kts
24-Sep-17 13:28 35.390825 -119.003257 312 1469ft 124kts
24-Sep-17 13:29 35.413273 -119.031229 311 1033ft 106kts
24-Sep-17 13:30 35.433089 -119.055303 313 525ft 90kts
24-Sep-17 13:31 35.438226 -119.059728 85 509ft 0kts
24-Sep-17 13:32 35.436190 -119.056803 135 509ft 29kts
24-Sep-17 13:33 35.435067 -119.053088 357 509ft 0kts
24-Sep-17 13:34 35.435067 -119.053088 357 509ft 0kts
24-Sep-17 13:35 35.435067 -119.053088 357 509ft 0kts
24-Sep-17 13:36 35.435067 -119.053088 357 509ft 0kts
24-Sep-17 13:37 35.435067 -119.053088 357 509ft 0kts
24-Sep-17 13:38 35.435067 -119.053088 357 509ft 0kts
24-Sep-17 13:39 35.435067 -119.053088 357 509ft 0kts
24-Sep-17 13:40 35.435067 -119.053088 357 509ft 0kts
24-Sep-17 13:41 35.435067 -119.053088 357 509ft 0kts
24-Sep-17 13:42 35.435067 -119.053088 357 509ft 0kts
24-Sep-17 13:43 35.435067 -119.053088 357 509ft 0kts
24-Sep-17 13:44 35.435067 -119.053088 357 509ft 0kts
24-Sep-17 13:45 35.435067 -119.053088 357 509ft 0kts

Navigation Log

Ident Type
Flight plan parsing failed, navigation log unavailable